Nearby METAR Reports

 

KVSF - Springfield, Vermont, USA
Distance from station: WNW 17mi, 27km
Updated: Thu, Nov-15-2018 12:54am EST
Clear
Clear
 Wind from calm
Wind: Calm
Temperature: 16°F , -9°C
Dew Point: 9°F , -13°C
Humidity: 73%
Barometer: 30.59 inHg , 1035.9 hPa
Clouds: Clear
Visibility: 10 miles , 16 km
2018/11/15 05:54 KVSF 150554Z AUTO 00000KT 10SM CLR M09/M13 A3059 RMK AO2 SLP370 T10941128 11061 21094 52009
KLEB - Lebanon, New Hampshire, USA
Distance from station: NNW 24mi, 39km
Updated: Thu, Nov-15-2018 12:53am EST
Clear
Clear
 Wind from calm
Wind: Calm
Temperature: 16°F , -9°C
Dew Point: 9°F , -13°C
Humidity: 73%
Barometer: 30.59 inHg , 1035.9 hPa
Clouds: Clear
Visibility: 10 miles , 16 km
2018/11/15 05:53 KLEB 150553Z AUTO 00000KT 10SM CLR M09/M13 A3059 RMK AO2 SLP373 T10941133 11072 21094 53010
 
KEEN - Keene/Dillant, New Hampshire, USA
Distance from station: S 28mi, 45km
Updated: Thu, Nov-15-2018 12:56am EST
Clear
Clear
 Wind from NNE
Wind: NNE 5 mph , 7 km/h
Temperature: 19°F , -7°C
Wind Chill: 12°F , -11°C
Dew Point: 9°F , -13°C
Humidity: 63%
Barometer: 30.59 inHg , 1035.9 hPa
Clouds: Clear
Visibility: 10 miles , 16 km
2018/11/15 05:56 KEEN 150556Z AUTO 03004KT 10SM CLR M07/M13 A3059 RMK AO2 SLP381 T10721133 11044 21072 51009 FZRANO $
KAFN - Jaffrey, New Hampshire, USA
Distance from station: SSE 35mi, 57km
Updated: Thu, Nov-15-2018 12:52am EST
Clear
Clear
 Wind from N
Wind: N 5 mph , 7 km/h
Temperature: 18°F , -8°C
Wind Chill: 11°F , -12°C
Dew Point: 5°F , -15°C
Humidity: 58%
Barometer: 30.54 inHg , 1034.2 hPa
Clouds: Clear
Visibility: 10 miles , 16 km
2018/11/15 05:52 KAFN 150552Z AUTO 36004KT 10SM CLR M08/M15 A3054 RMK AO2 SLP363 T10781150 11050 21078 51007
 
KCON - Concord, New Hampshire, USA
Distance from station: E 35mi, 57km
Updated: Thu, Nov-15-2018 12:51am EST
Clear
Clear
 Wind from NW
Wind: NW 8 mph , 13 km/h
Temperature: 18°F , -8°C
Wind Chill: 8°F , -13°C
Dew Point: 7°F , -14°C
Humidity: 62%
Barometer: 30.58 inHg , 1035.6 hPa
Clouds: Clear
Visibility: 10 miles , 16 km
2018/11/15 05:51 KCON 150551Z AUTO 31007KT 10SM CLR M08/M14 A3058 RMK AO2 SLP363 T10831139 11067 21089 53000
K1P1 - Plymouth, New Hampshire, USA
Distance from station: NNE 41mi, 66km
Updated: Thu, Nov-15-2018 12:55am EST
Clear
Clear
 Wind from NW
Wind: NW 6 mph , 9 km/h
Temperature: 14°F , -10°C
Wind Chill: 5°F , -15°C
Dew Point: 7°F , -14°C
Humidity: 73%
Barometer: 30.57 inHg , 1035.2 hPa
Clouds: Clear
Visibility: 10 miles , 16 km
2018/11/15 05:55 K1P1 150555Z AUTO 32005KT 10SM CLR M10/M14 A3057 RMK AO2 T11031137 11085 21110
 
KRUT - Rutland State, Vermont, USA
Distance from station: WNW 41mi, 66km
Updated: Thu, Nov-15-2018 12:56am EST
Clear
Clear
 Wind from calm
Wind: Calm
Temperature: 12°F , -11°C
Dew Point: 9°F , -13°C
Humidity: 85%
Barometer: 30.56 inHg , 1034.9 hPa
Clouds: Clear
Visibility: 10 miles , 16 km
2018/11/15 05:56 KRUT 150556Z AUTO 00000KT 10SM CLR M11/M13 A3056 RMK AO2 SLP372 T11111128 11083 21111 50013 FZRANO $
KLCI - Laconia Muni, New Hampshire, USA
Distance from station: ENE 44mi, 70km
Updated: Thu, Nov-15-2018 12:56am EST
Clear
Clear
 Wind from W
Wind: W 9 mph , 15 km/h
Temperature: 16°F , -9°C
Wind Chill: 5°F , -15°C
Dew Point: 7°F , -14°C
Humidity: 67%
Barometer: 30.56 inHg , 1034.9 hPa
Clouds: Clear
Visibility: 10 miles , 16 km
2018/11/15 05:56 KLCI 150556Z AUTO 26008KT 10SM CLR M09/M14 A3056 RMK AO2 SLP369 T10891139 11078 21094 51003 FZRANO $
 
KMHT - Manchester, New Hampshire, USA
Distance from station: ESE 46mi, 73km
Updated: Thu, Nov-15-2018 12:53am EST
Mostly cloudy
Mostly cloudy
 Wind from NNW
Wind: NNW 8 mph , 13 km/h
Temperature: 19°F , -7°C
Wind Chill: 9°F , -13°C
Dew Point: 7°F , -14°C
Humidity: 58%
Barometer: 30.58 inHg , 1035.6 hPa
Clouds: Mostly cloudy
Visibility: 10 miles , 16 km
Cloud details: Mostly cloudy 25000 ft
2018/11/15 05:53 KMHT 150553Z 33007KT 10SM BKN250 M07/M14 A3058 RMK AO2 SLP376 T10671144 11039 21067 53003
KASH - Nashua/Boire Fld, New Hampshire, USA
Distance from station: SE 49mi, 79km
Updated: Thu, Nov-15-2018 12:56am EST
Clear
Clear
 Wind from NW
Wind: NW 12 mph , 19 km/h
Temperature: 19°F , -7°C
Wind Chill: 6°F , -14°C
Dew Point: 7°F , -14°C
Humidity: 58%
Barometer: 30.60 inHg , 1036.2 hPa
Clouds: Clear
Visibility: 10 miles , 16 km
2018/11/15 05:56 KASH 150556Z AUTO 32010KT 10SM CLR M07/M14 A3060 RMK AO2 SLP373 6//// T10671139 11033 21067 51004
 
KORE - Orange, Massachusetts, USA
Distance from station: S 50mi, 81km
Updated: Thu, Nov-15-2018 12:52am EST
Clear
Clear
 Wind from N
Wind: N 3 mph , 6 km/h
Temperature: 21°F , -6°C
Dew Point: 7°F , -14°C
Humidity: 54%
Barometer: 30.60 inHg , 1036.2 hPa
Clouds: Clear
Visibility: 10 miles , 16 km
2018/11/15 05:52 KORE 150552Z AUTO 36003KT 10SM CLR M06/M14 A3060 RMK AO2 SLP371 T10561144 11028 21061 53009